sensor_id;sensor_type;location;lat;lon;timestamp;pressure;altitude;pressure_sealevel;temperature;humidity
57574;BME280;68988;49.000;21.242;2024-03-17T00:01:20;98632.53;;;22.42;39.15
57574;BME280;68988;49.000;21.242;2024-03-17T00:03:45;98633.06;;;22.44;38.71
57574;BME280;68988;49.000;21.242;2024-03-17T00:06:11;98635.75;;;22.44;38.98
57574;BME280;68988;49.000;21.242;2024-03-17T00:08:36;98642.41;;;22.41;38.72
57574;BME280;68988;49.000;21.242;2024-03-17T00:11:03;98638.94;;;22.41;38.99
57574;BME280;68988;49.000;21.242;2024-03-17T00:13:28;98646.94;;;22.41;38.97
57574;BME280;68988;49.000;21.242;2024-03-17T00:15:54;98649.06;;;22.39;38.87
57574;BME280;68988;49.000;21.242;2024-03-17T00:18:19;98642.72;;;22.45;38.70
57574;BME280;68988;49.000;21.242;2024-03-17T00:20:45;98641.59;;;22.41;39.02
57574;BME280;68988;49.000;21.242;2024-03-17T00:23:10;98628.78;;;22.43;38.84
57574;BME280;68988;49.000;21.242;2024-03-17T00:25:37;98629.81;;;22.37;38.90
57574;BME280;68988;49.000;21.242;2024-03-17T00:28:03;98632.53;;;22.42;39.30
57574;BME280;68988;49.000;21.242;2024-03-17T00:30:29;98630.41;;;22.44;38.80
57574;BME280;68988;49.000;21.242;2024-03-17T00:32:54;98624.25;;;22.43;38.89
57574;BME280;68988;49.000;21.242;2024-03-17T00:35:20;98628.50;;;22.39;39.08
57574;BME280;68988;49.000;21.242;2024-03-17T00:37:47;98620.22;;;22.41;39.05
57574;BME280;68988;49.000;21.242;2024-03-17T00:40:13;98620.75;;;22.38;38.87
57574;BME280;68988;49.000;21.242;2024-03-17T00:42:39;98625.81;;;22.39;38.92
57574;BME280;68988;49.000;21.242;2024-03-17T00:45:05;98622.66;;;22.42;38.79
57574;BME280;68988;49.000;21.242;2024-03-17T00:47:31;98619.13;;;22.37;39.04
57574;BME280;68988;49.000;21.242;2024-03-17T00:49:57;98627.72;;;22.39;38.96
57574;BME280;68988;49.000;21.242;2024-03-17T00:52:22;98630.63;;;22.37;38.83
57574;BME280;68988;49.000;21.242;2024-03-17T00:54:48;98630.31;;;22.33;38.94
57574;BME280;68988;49.000;21.242;2024-03-17T00:57:14;98627.41;;;22.35;38.66
57574;BME280;68988;49.000;21.242;2024-03-17T00:59:40;98619.13;;;22.37;38.91
57574;BME280;68988;49.000;21.242;2024-03-17T01:02:07;98619.13;;;22.37;38.79
57574;BME280;68988;49.000;21.242;2024-03-17T01:04:32;98617.69;;;22.29;39.08
57574;BME280;68988;49.000;21.242;2024-03-17T01:06:59;98620.19;;;22.35;38.85
57574;BME280;68988;49.000;21.242;2024-03-17T01:09:25;98612.69;;;22.32;39.00
57574;BME280;68988;49.000;21.242;2024-03-17T01:11:50;98614.88;;;22.35;38.99
57574;BME280;68988;49.000;21.242;2024-03-17T01:14:15;98607.34;;;22.32;39.03
57574;BME280;68988;49.000;21.242;2024-03-17T01:16:41;98608.41;;;22.31;38.89
57574;BME280;68988;49.000;21.242;2024-03-17T01:19:06;98609.25;;;22.37;38.84
57574;BME280;68988;49.000;21.242;2024-03-17T01:21:32;98606.84;;;22.35;38.92
57574;BME280;68988;49.000;21.242;2024-03-17T01:23:57;98603.59;;;22.33;38.78
57574;BME280;68988;49.000;21.242;2024-03-17T01:26:23;98599.88;;;22.34;38.83
57574;BME280;68988;49.000;21.242;2024-03-17T01:28:49;98600.13;;;22.33;38.77
57574;BME280;68988;49.000;21.242;2024-03-17T01:31:15;98600.94;;;22.33;38.89
57574;BME280;68988;49.000;21.242;2024-03-17T01:33:40;98604.13;;;22.30;39.09
57574;BME280;68988;49.000;21.242;2024-03-17T01:36:06;98599.81;;;22.29;38.96
57574;BME280;68988;49.000;21.242;2024-03-17T01:38:31;98610.28;;;22.31;39.00
57574;BME280;68988;49.000;21.242;2024-03-17T01:40:58;98605.44;;;22.28;39.03
57574;BME280;68988;49.000;21.242;2024-03-17T01:43:24;98607.03;;;22.29;39.04
57574;BME280;68988;49.000;21.242;2024-03-17T01:45:50;98610.50;;;22.29;38.89
57574;BME280;68988;49.000;21.242;2024-03-17T01:48:16;98608.41;;;22.31;39.06
57574;BME280;68988;49.000;21.242;2024-03-17T01:50:44;98612.69;;;22.32;38.81
57574;BME280;68988;49.000;21.242;2024-03-17T01:53:11;98619.63;;;22.33;38.57
57574;BME280;68988;49.000;21.242;2024-03-17T01:55:40;98620.19;;;22.35;38.97
57574;BME280;68988;49.000;21.242;2024-03-17T01:58:07;98615.28;;;22.27;38.94
57574;BME280;68988;49.000;21.242;2024-03-17T02:00:33;98622.81;;;22.30;38.94
57574;BME280;68988;49.000;21.242;2024-03-17T02:03:02;98609.41;;;22.25;38.65
57574;BME280;68988;49.000;21.242;2024-03-17T02:05:28;98615.84;;;22.29;38.98
57574;BME280;68988;49.000;21.242;2024-03-17T02:07:54;98623.81;;;22.24;39.11
57574;BME280;68988;49.000;21.242;2024-03-17T02:10:19;98620.06;;;22.20;38.91
57574;BME280;68988;49.000;21.242;2024-03-17T02:12:44;98619.59;;;22.28;39.11
57574;BME280;68988;49.000;21.242;2024-03-17T02:15:10;98621.78;;;22.31;39.00
57574;BME280;68988;49.000;21.242;2024-03-17T02:17:36;98618.22;;;22.26;39.09
57574;BME280;68988;49.000;21.242;2024-03-17T02:20:03;98618.78;;;22.28;38.90
57574;BME280;68988;49.000;21.242;2024-03-17T02:22:34;98619.31;;;22.30;38.78
57574;BME280;68988;49.000;21.242;2024-03-17T02:25:00;98617.41;;;22.25;38.83
57574;BME280;68988;49.000;21.242;2024-03-17T02:27:25;98619.28;;;22.25;38.90
57574;BME280;68988;49.000;21.242;2024-03-17T02:29:50;98615.78;;;22.24;38.89
57574;BME280;68988;49.000;21.242;2024-03-17T02:32:16;98619.03;;;22.26;39.06
57574;BME280;68988;49.000;21.242;2024-03-17T02:34:42;98614.25;;;22.28;39.01
57574;BME280;68988;49.000;21.242;2024-03-17T02:37:09;98605.94;;;22.25;38.80
57574;BME280;68988;49.000;21.242;2024-03-17T02:39:36;98621.97;;;22.25;38.93
57574;BME280;68988;49.000;21.242;2024-03-17T02:42:03;98613.94;;;22.25;39.04
57574;BME280;68988;49.000;21.242;2024-03-17T02:44:31;98617.41;;;22.25;39.07
57574;BME280;68988;49.000;21.242;2024-03-17T02:46:57;98617.41;;;22.25;39.02
57574;BME280;68988;49.000;21.242;2024-03-17T02:49:27;98607.25;;;22.22;38.81
57574;BME280;68988;49.000;21.242;2024-03-17T02:51:56;98615.53;;;22.26;39.10
57574;BME280;68988;49.000;21.242;2024-03-17T02:54:22;98616.31;;;22.21;39.05
57574;BME280;68988;49.000;21.242;2024-03-17T02:56:50;98623.81;;;22.24;38.89
57574;BME280;68988;49.000;21.242;2024-03-17T02:59:16;98620.63;;;22.27;39.03
57574;BME280;68988;49.000;21.242;2024-03-17T03:01:42;98618.47;;;22.24;39.09
57574;BME280;68988;49.000;21.242;2024-03-17T03:04:07;98615.53;;;22.26;38.75
57574;BME280;68988;49.000;21.242;2024-03-17T03:06:33;98623.56;;;22.26;38.91
57574;BME280;68988;49.000;21.242;2024-03-17T03:08:59;98615.78;;;22.24;39.00
57574;BME280;68988;49.000;21.242;2024-03-17T03:11:24;98615.50;;;22.21;38.81
57574;BME280;68988;49.000;21.242;2024-03-17T03:13:50;98610.97;;;22.21;38.92
57574;BME280;68988;49.000;21.242;2024-03-17T03:16:15;98614.72;;;22.20;38.92
57574;BME280;68988;49.000;21.242;2024-03-17T03:18:41;98621.97;;;22.25;38.80
57574;BME280;68988;49.000;21.242;2024-03-17T03:21:08;98616.63;;;22.25;38.93
57574;BME280;68988;49.000;21.242;2024-03-17T03:23:34;98619.56;;;22.23;39.04
57574;BME280;68988;49.000;21.242;2024-03-17T03:26:01;98624.91;;;22.23;38.81
57574;BME280;68988;49.000;21.242;2024-03-17T03:28:32;98622.22;;;22.23;39.18
57574;BME280;68988;49.000;21.242;2024-03-17T03:30:59;98617.94;;;22.22;38.68
57574;BME280;68988;49.000;21.242;2024-03-17T03:33:24;98622.72;;;22.20;38.85
57574;BME280;68988;49.000;21.242;2024-03-17T03:35:50;98626.75;;;22.23;39.03
57574;BME280;68988;49.000;21.242;2024-03-17T03:38:16;98624.56;;;22.20;39.08
57574;BME280;68988;49.000;21.242;2024-03-17T03:40:42;98625.41;;;22.20;39.04
57574;BME280;68988;49.000;21.242;2024-03-17T03:43:11;98633.41;;;22.20;39.06
57574;BME280;68988;49.000;21.242;2024-03-17T03:45:37;98631.78;;;22.19;38.95
57574;BME280;68988;49.000;21.242;2024-03-17T03:48:03;98634.75;;;22.23;38.93
57574;BME280;68988;49.000;21.242;2024-03-17T03:50:29;98634.50;;;22.24;39.03
57574;BME280;68988;49.000;21.242;2024-03-17T03:52:55;98628.34;;;22.18;38.87
57574;BME280;68988;49.000;21.242;2024-03-17T03:55:20;98636.88;;;22.21;39.04
57574;BME280;68988;49.000;21.242;2024-03-17T03:57:46;98631.28;;;22.22;39.14
57574;BME280;68988;49.000;21.242;2024-03-17T04:00:13;98635.06;;;22.26;39.17
57574;BME280;68988;49.000;21.242;2024-03-17T04:02:40;98639.81;;;22.19;38.89
57574;BME280;68988;49.000;21.242;2024-03-17T04:05:06;98638.75;;;22.20;39.04
57574;BME280;68988;49.000;21.242;2024-03-17T04:07:31;98646.25;;;22.23;38.73
57574;BME280;68988;49.000;21.242;2024-03-17T04:09:57;98640.34;;;22.21;38.74
57574;BME280;68988;49.000;21.242;2024-03-17T04:12:24;98651.59;;;22.23;38.86
57574;BME280;68988;49.000;21.242;2024-03-17T04:14:49;98655.03;;;22.18;38.82
57574;BME280;68988;49.000;21.242;2024-03-17T04:17:21;98661.19;;;22.19;38.92
57574;BME280;68988;49.000;21.242;2024-03-17T04:19:48;98661.69;;;22.16;38.96
57574;BME280;68988;49.000;21.242;2024-03-17T04:22:14;98663.81;;;22.14;39.12
57574;BME280;68988;49.000;21.242;2024-03-17T04:24:40;98670.50;;;22.16;39.06
57574;BME280;68988;49.000;21.242;2024-03-17T04:27:05;98671.56;;;22.15;38.95
57574;BME280;68988;49.000;21.242;2024-03-17T04:29:31;98673.75;;;22.18;38.80
57574;BME280;68988;49.000;21.242;2024-03-17T04:31:56;98681.19;;;22.16;39.01
57574;BME280;68988;49.000;21.242;2024-03-17T04:34:22;98679.34;;;22.17;39.03
57574;BME280;68988;49.000;21.242;2024-03-17T04:36:47;98686.25;;;22.18;38.76
57574;BME280;68988;49.000;21.242;2024-03-17T04:39:12;98684.69;;;22.17;38.91
57574;BME280;68988;49.000;21.242;2024-03-17T04:41:38;98694.78;;;22.15;39.08
57574;BME280;68988;49.000;21.242;2024-03-17T04:44:06;98701.50;;;22.17;38.92
57574;BME280;68988;49.000;21.242;2024-03-17T04:46:32;98701.75;;;22.16;38.78
57574;BME280;68988;49.000;21.242;2024-03-17T04:48:57;98707.09;;;22.16;39.10
57574;BME280;68988;49.000;21.242;2024-03-17T04:51:23;98708.97;;;22.15;38.92
57574;BME280;68988;49.000;21.242;2024-03-17T04:53:48;98699.06;;;22.16;38.97
57574;BME280;68988;49.000;21.242;2024-03-17T04:56:14;98697.44;;;22.15;38.81
57574;BME280;68988;49.000;21.242;2024-03-17T04:58:39;98700.69;;;22.17;38.55
57574;BME280;68988;49.000;21.242;2024-03-17T05:01:07;98713.78;;;22.18;38.77
57574;BME280;68988;49.000;21.242;2024-03-17T05:03:34;98711.88;;;22.14;39.09
57574;BME280;68988;49.000;21.242;2024-03-17T05:06:03;98719.41;;;22.17;38.80
57574;BME280;68988;49.000;21.242;2024-03-17T05:08:30;98725.25;;;22.14;38.92
57574;BME280;68988;49.000;21.242;2024-03-17T05:10:57;98715.59;;;22.13;38.93
57574;BME280;68988;49.000;21.242;2024-03-17T05:13:23;98717.72;;;22.11;38.95
57574;BME280;68988;49.000;21.242;2024-03-17T05:15:49;98721.75;;;22.13;38.95
57574;BME280;68988;49.000;21.242;2024-03-17T05:18:14;98724.16;;;22.15;38.87
57574;BME280;68988;49.000;21.242;2024-03-17T05:20:40;98730.00;;;22.12;39.15
57574;BME280;68988;49.000;21.242;2024-03-17T05:23:05;98732.75;;;22.17;38.87
57574;BME280;68988;49.000;21.242;2024-03-17T05:25:30;98738.09;;;22.17;38.95
57574;BME280;68988;49.000;21.242;2024-03-17T05:28:01;98746.34;;;22.15;39.00
57574;BME280;68988;49.000;21.242;2024-03-17T05:30:27;98750.38;;;22.18;38.92
57574;BME280;68988;49.000;21.242;2024-03-17T05:32:52;98757.84;;;22.16;38.85
57574;BME280;68988;49.000;21.242;2024-03-17T05:35:18;98765.03;;;22.15;38.82
57574;BME280;68988;49.000;21.242;2024-03-17T05:37:43;98770.38;;;22.15;38.79
57574;BME280;68988;49.000;21.242;2024-03-17T05:40:10;98781.63;;;22.17;39.02
57574;BME280;68988;49.000;21.242;2024-03-17T05:42:37;98781.38;;;22.19;38.90
57574;BME280;68988;49.000;21.242;2024-03-17T05:45:03;98786.66;;;22.14;38.86
57574;BME280;68988;49.000;21.242;2024-03-17T05:47:28;98795.22;;;22.16;38.94
57574;BME280;68988;49.000;21.242;2024-03-17T05:49:54;98804.28;;;22.15;38.97
57574;BME280;68988;49.000;21.242;2024-03-17T05:52:21;98806.91;;;22.10;38.81
57574;BME280;68988;49.000;21.242;2024-03-17T05:54:47;98812.03;;;22.16;38.87
57574;BME280;68988;49.000;21.242;2024-03-17T05:57:12;98814.47;;;22.18;38.76
57574;BME280;68988;49.000;21.242;2024-03-17T05:59:39;98808.53;;;22.11;38.41
57574;BME280;68988;49.000;21.242;2024-03-17T06:02:05;98821.94;;;22.16;38.74
57574;BME280;68988;49.000;21.242;2024-03-17T06:04:30;98822.72;;;22.16;38.81
57574;BME280;68988;49.000;21.242;2024-03-17T06:06:55;98826.78;;;22.19;38.98
57574;BME280;68988;49.000;21.242;2024-03-17T06:09:21;98833.66;;;22.15;38.97
57574;BME280;68988;49.000;21.242;2024-03-17T06:11:47;98840.38;;;22.17;38.76
57574;BME280;68988;49.000;21.242;2024-03-17T06:14:13;98835.03;;;22.17;38.69
57574;BME280;68988;49.000;21.242;2024-03-17T06:16:39;98843.31;;;22.16;38.98
57574;BME280;68988;49.000;21.242;2024-03-17T06:19:04;98855.84;;;22.15;39.02
57574;BME280;68988;49.000;21.242;2024-03-17T06:21:30;98857.19;;;22.18;38.88
57574;BME280;68988;49.000;21.242;2024-03-17T06:23:55;98851.56;;;22.14;38.68
57574;BME280;68988;49.000;21.242;2024-03-17T06:26:21;98854.47;;;22.13;38.71
57574;BME280;68988;49.000;21.242;2024-03-17T06:28:48;98868.38;;;22.15;38.92
57574;BME280;68988;49.000;21.242;2024-03-17T06:31:13;98868.38;;;22.15;38.85
57574;BME280;68988;49.000;21.242;2024-03-17T06:33:39;98869.72;;;22.12;38.82
57574;BME280;68988;49.000;21.242;2024-03-17T06:36:04;98868.38;;;22.15;38.87
57574;BME280;68988;49.000;21.242;2024-03-17T06:38:31;98879.56;;;22.12;38.72
57574;BME280;68988;49.000;21.242;2024-03-17T06:40:57;98880.69;;;22.16;38.70
57574;BME280;68988;49.000;21.242;2024-03-17T06:43:22;98873.72;;;22.15;38.81
57574;BME280;68988;49.000;21.242;2024-03-17T06:45:58;98883.13;;;22.17;38.74
57574;BME280;68988;49.000;21.242;2024-03-17T06:48:24;98876.41;;;22.15;38.81
57574;BME280;68988;49.000;21.242;2024-03-17T06:50:50;98887.16;;;22.20;38.61
57574;BME280;68988;49.000;21.242;2024-03-17T06:53:20;98880.19;;;22.19;38.74
57574;BME280;68988;49.000;21.242;2024-03-17T06:55:56;98884.25;;;22.22;38.86
57574;BME280;68988;49.000;21.242;2024-03-17T06:58:26;98883.13;;;22.17;38.73
57574;BME280;68988;49.000;21.242;2024-03-17T07:01:01;98880.19;;;22.19;38.64
57574;BME280;68988;49.000;21.242;2024-03-17T07:03:30;98877.28;;;22.21;38.79
57574;BME280;68988;49.000;21.242;2024-03-17T07:05:58;98879.66;;;22.17;38.71
57574;BME280;68988;49.000;21.242;2024-03-17T07:08:24;98877.28;;;22.21;38.61
57574;BME280;68988;49.000;21.242;2024-03-17T07:11:00;98879.69;;;22.22;38.52
57574;BME280;68988;49.000;21.242;2024-03-17T07:13:29;98876.72;;;22.18;38.62
57574;BME280;68988;49.000;21.242;2024-03-17T07:15:54;98866.28;;;22.17;38.64
57574;BME280;68988;49.000;21.242;2024-03-17T07:18:20;98874.34;;;22.22;38.55
57574;BME280;68988;49.000;21.242;2024-03-17T07:20:45;98880.81;;;22.26;38.65
57574;BME280;68988;49.000;21.242;2024-03-17T07:23:15;98872.56;;;22.28;38.69
57574;BME280;68988;49.000;21.242;2024-03-17T07:25:41;98884.50;;;22.42;38.30
57574;BME280;68988;49.000;21.242;2024-03-17T07:28:08;98888.53;;;22.45;38.37
57574;BME280;68988;49.000;21.242;2024-03-17T07:30:34;98889.03;;;22.42;38.17
57574;BME280;68988;49.000;21.242;2024-03-17T07:33:00;98895.47;;;22.46;38.20
57574;BME280;68988;49.000;21.242;2024-03-17T07:35:25;98897.56;;;22.39;38.26
57574;BME280;68988;49.000;21.242;2024-03-17T07:37:51;98898.34;;;22.39;38.45
57574;BME280;68988;49.000;21.242;2024-03-17T07:40:16;98898.59;;;22.38;38.78
57574;BME280;68988;49.000;21.242;2024-03-17T07:42:41;98897.81;;;22.37;38.51
57574;BME280;68988;49.000;21.242;2024-03-17T07:45:07;98900.72;;;22.35;38.32
57574;BME280;68988;49.000;21.242;2024-03-17T07:47:33;98902.81;;;22.33;38.28
57574;BME280;68988;49.000;21.242;2024-03-17T07:50:04;98900.16;;;22.33;38.48
57574;BME280;68988;49.000;21.242;2024-03-17T07:52:33;98899.59;;;22.31;38.47
57574;BME280;68988;49.000;21.242;2024-03-17T07:54:58;98892.13;;;22.33;38.28
57574;BME280;68988;49.000;21.242;2024-03-17T07:57:24;98891.88;;;22.35;38.42
57574;BME280;68988;49.000;21.242;2024-03-17T07:59:50;98888.13;;;22.31;38.52
57574;BME280;68988;49.000;21.242;2024-03-17T08:02:16;98887.28;;;22.30;38.39
57574;BME280;68988;49.000;21.242;2024-03-17T08:04:42;98885.91;;;22.28;38.65
57574;BME280;68988;49.000;21.242;2024-03-17T08:07:09;98888.84;;;22.26;38.65
57574;BME280;68988;49.000;21.242;2024-03-17T08:09:35;98884.78;;;22.24;38.58
57574;BME280;68988;49.000;21.242;2024-03-17T08:12:00;98891.50;;;22.26;38.29
57574;BME280;68988;49.000;21.242;2024-03-17T08:14:27;98890.69;;;22.26;38.48
57574;BME280;68988;49.000;21.242;2024-03-17T08:16:52;98886.41;;;22.25;38.45
57574;BME280;68988;49.000;21.242;2024-03-17T08:19:18;98883.50;;;22.26;38.57
57574;BME280;68988;49.000;21.242;2024-03-17T08:21:43;98898.44;;;22.27;38.90
57574;BME280;68988;49.000;21.242;2024-03-17T08:24:10;98895.31;;;22.30;38.54
57574;BME280;68988;49.000;21.242;2024-03-17T08:26:35;98893.34;;;22.26;38.33
57574;BME280;68988;49.000;21.242;2024-03-17T08:29:01;98892.56;;;22.25;38.40
57574;BME280;68988;49.000;21.242;2024-03-17T08:31:26;98891.50;;;22.26;38.42
57574;BME280;68988;49.000;21.242;2024-03-17T08:33:52;98879.19;;;22.25;38.67
57574;BME280;68988;49.000;21.242;2024-03-17T08:36:18;98887.75;;;22.27;38.42
57574;BME280;68988;49.000;21.242;2024-03-17T08:38:45;98889.97;;;22.30;38.59
57574;BME280;68988;49.000;21.242;2024-03-17T08:41:10;98893.22;;;22.32;38.28
57574;BME280;68988;49.000;21.242;2024-03-17T08:43:37;98888.16;;;22.36;38.53
57574;BME280;68988;49.000;21.242;2024-03-17T08:46:03;98896.19;;;22.36;38.34
57574;BME280;68988;49.000;21.242;2024-03-17T08:48:31;98900.72;;;22.35;38.46
57574;BME280;68988;49.000;21.242;2024-03-17T08:50:58;98900.41;;;22.32;38.60
57574;BME280;68988;49.000;21.242;2024-03-17T08:53:25;98891.63;;;22.37;38.41
57574;BME280;68988;49.000;21.242;2024-03-17T08:55:51;98887.63;;;22.34;38.40
57574;BME280;68988;49.000;21.242;2024-03-17T08:58:17;98886.78;;;22.33;38.27
57574;BME280;68988;49.000;21.242;2024-03-17T09:00:43;98882.78;;;22.31;38.28
57574;BME280;68988;49.000;21.242;2024-03-17T09:03:10;98881.78;;;22.37;38.28
57574;BME280;68988;49.000;21.242;2024-03-17T09:05:39;98882.63;;;22.43;38.49
57574;BME280;68988;49.000;21.242;2024-03-17T09:08:06;98868.47;;;22.42;38.22
57574;BME280;68988;49.000;21.242;2024-03-17T09:10:42;98873.09;;;22.52;38.34
57574;BME280;68988;49.000;21.242;2024-03-17T09:13:14;98863.53;;;22.56;38.04
57574;BME280;68988;49.000;21.242;2024-03-17T09:15:49;98864.56;;;22.55;38.17
57574;BME280;68988;49.000;21.242;2024-03-17T09:18:14;98866.44;;;22.55;37.94
57574;BME280;68988;49.000;21.242;2024-03-17T09:20:40;98855.25;;;22.58;38.06
57574;BME280;68988;49.000;21.242;2024-03-17T09:23:05;98853.63;;;22.57;37.90
57574;BME280;68988;49.000;21.242;2024-03-17T09:25:30;98853.38;;;22.58;38.05
57574;BME280;68988;49.000;21.242;2024-03-17T09:27:56;98852.84;;;22.56;38.06
57574;BME280;68988;49.000;21.242;2024-03-17T09:30:21;98855.75;;;22.55;37.85
57574;BME280;68988;49.000;21.242;2024-03-17T09:32:47;98865.16;;;22.57;38.05
57574;BME280;68988;49.000;21.242;2024-03-17T09:35:12;98849.91;;;22.58;38.12
57574;BME280;68988;49.000;21.242;2024-03-17T09:37:38;98846.72;;;22.61;37.95
57574;BME280;68988;49.000;21.242;2024-03-17T09:40:04;98850.28;;;22.66;37.81
57574;BME280;68988;49.000;21.242;2024-03-17T09:42:31;98846.78;;;22.66;37.79
57574;BME280;68988;49.000;21.242;2024-03-17T09:44:57;98850.28;;;22.66;37.83
57574;BME280;68988;49.000;21.242;2024-03-17T09:47:24;98858.28;;;22.66;38.05
57574;BME280;68988;49.000;21.242;2024-03-17T09:49:51;98857.97;;;22.63;37.99
57574;BME280;68988;49.000;21.242;2024-03-17T09:52:22;98856.13;;;22.63;37.94
57574;BME280;68988;49.000;21.242;2024-03-17T09:55:23;98852.47;;;22.75;37.69
57574;BME280;68988;49.000;21.242;2024-03-17T09:57:49;98849.66;;;22.59;37.97
57574;BME280;68988;49.000;21.242;2024-03-17T10:00:15;98844.84;;;22.61;37.79
57574;BME280;68988;49.000;21.242;2024-03-17T10:02:45;98840.00;;;22.58;38.21
57574;BME280;68988;49.000;21.242;2024-03-17T10:05:24;98844.34;;;22.64;37.94
57574;BME280;68988;49.000;21.242;2024-03-17T10:07:51;98843.44;;;22.53;37.94
57574;BME280;68988;49.000;21.242;2024-03-17T10:10:18;98834.34;;;22.49;37.99
57574;BME280;68988;49.000;21.242;2024-03-17T10:12:49;98836.50;;;22.52;38.05
57574;BME280;68988;49.000;21.242;2024-03-17T10:15:15;98826.81;;;22.46;38.17
57574;BME280;68988;49.000;21.242;2024-03-17T10:17:40;98826.00;;;22.46;38.04
57574;BME280;68988;49.000;21.242;2024-03-17T10:20:19;98832.47;;;22.50;37.96
57574;BME280;68988;49.000;21.242;2024-03-17T10:25:30;98827.63;;;22.47;38.07
57574;BME280;68988;49.000;21.242;2024-03-17T10:27:56;98814.75;;;22.44;38.03
57574;BME280;68988;49.000;21.242;2024-03-17T10:30:23;98810.78;;;22.46;38.11
57574;BME280;68988;49.000;21.242;2024-03-17T10:32:58;98802.81;;;22.51;38.00
57574;BME280;68988;49.000;21.242;2024-03-17T10:35:34;98802.78;;;22.46;37.96
57574;BME280;68988;49.000;21.242;2024-03-17T10:38:03;98801.16;;;22.45;38.04
57574;BME280;68988;49.000;21.242;2024-03-17T10:40:30;98801.41;;;22.44;38.00
57574;BME280;68988;49.000;21.242;2024-03-17T10:42:58;98799.53;;;22.44;38.12
57574;BME280;68988;49.000;21.242;2024-03-17T10:45:25;98799.78;;;22.43;38.25
57574;BME280;68988;49.000;21.242;2024-03-17T10:47:51;98804.13;;;22.49;38.15
57574;BME280;68988;49.000;21.242;2024-03-17T10:50:21;98796.94;;;22.49;37.97
57574;BME280;68988;49.000;21.242;2024-03-17T10:52:49;98795.00;;;22.45;38.16
57574;BME280;68988;49.000;21.242;2024-03-17T10:57:48;98787.28;;;22.48;38.06
57574;BME280;68988;49.000;21.242;2024-03-17T11:00:16;98785.88;;;22.41;38.19
57574;BME280;68988;49.000;21.242;2024-03-17T11:02:44;98794.75;;;22.46;38.12
57574;BME280;68988;49.000;21.242;2024-03-17T11:05:11;98793.13;;;22.45;38.15
57574;BME280;68988;49.000;21.242;2024-03-17T11:07:38;98786.16;;;22.44;38.25
57574;BME280;68988;49.000;21.242;2024-03-17T11:10:09;98793.38;;;22.44;38.23
57574;BME280;68988;49.000;21.242;2024-03-17T11:20:35;98784.84;;;22.42;38.00
57574;BME280;68988;49.000;21.242;2024-03-17T11:23:01;98789.91;;;22.43;38.17
57574;BME280;68988;49.000;21.242;2024-03-17T11:28:08;98773.06;;;22.43;38.05
57574;BME280;68988;49.000;21.242;2024-03-17T11:39:09;98763.25;;;22.48;38.14
57574;BME280;68988;49.000;21.242;2024-03-17T11:41:49;98762.97;;;22.50;38.15
57574;BME280;68988;49.000;21.242;2024-03-17T11:51:51;98751.16;;;22.41;38.18
57574;BME280;68988;49.000;21.242;2024-03-17T11:54:18;98748.19;;;22.37;38.40
57574;BME280;68988;49.000;21.242;2024-03-17T11:56:51;98741.00;;;22.43;38.35
57574;BME280;68988;49.000;21.242;2024-03-17T11:59:20;98737.38;;;22.54;38.04
57574;BME280;68988;49.000;21.242;2024-03-17T12:01:49;98739.91;;;22.39;38.18
57574;BME280;68988;49.000;21.242;2024-03-17T12:04:16;98725.97;;;22.37;38.38
57574;BME280;68988;49.000;21.242;2024-03-17T12:06:58;98724.97;;;22.43;38.19
57574;BME280;68988;49.000;21.242;2024-03-17T12:09:27;98720.72;;;22.42;38.11
57574;BME280;68988;49.000;21.242;2024-03-17T12:12:05;98718.31;;;22.45;38.23
57574;BME280;68988;49.000;21.242;2024-03-17T12:14:32;98718.03;;;22.42;38.14
57574;BME280;68988;49.000;21.242;2024-03-17T12:17:04;98705.72;;;22.41;38.11
57574;BME280;68988;49.000;21.242;2024-03-17T12:19:30;98712.69;;;22.42;38.23
57574;BME280;68988;49.000;21.242;2024-03-17T12:21:57;98707.88;;;22.44;38.29
57574;BME280;68988;49.000;21.242;2024-03-17T12:24:24;98706.78;;;22.40;38.15
57574;BME280;68988;49.000;21.242;2024-03-17T12:26:52;98697.38;;;22.32;38.19
57574;BME280;68988;49.000;21.242;2024-03-17T12:31:52;98698.75;;;22.40;38.40
57574;BME280;68988;49.000;21.242;2024-03-17T12:34:19;98693.41;;;22.40;38.13
57574;BME280;68988;49.000;21.242;2024-03-17T12:36:46;98697.22;;;22.49;37.91
57574;BME280;68988;49.000;21.242;2024-03-17T12:39:41;98688.97;;;22.50;38.09
57574;BME280;68988;49.000;21.242;2024-03-17T12:42:09;98685.47;;;22.45;38.14
57574;BME280;68988;49.000;21.242;2024-03-17T12:44:57;98688.13;;;22.45;38.19
57574;BME280;68988;49.000;21.242;2024-03-17T12:47:27;98696.91;;;22.40;38.30
57574;BME280;68988;49.000;21.242;2024-03-17T12:49:57;98689.19;;;22.44;38.05
57574;BME280;68988;49.000;21.242;2024-03-17T12:52:29;98687.56;;;22.43;37.92
57574;BME280;68988;49.000;21.242;2024-03-17T12:55:08;98699.88;;;22.44;38.19
57574;BME280;68988;49.000;21.242;2024-03-17T12:58:05;98692.13;;;22.42;37.97
57574;BME280;68988;49.000;21.242;2024-03-17T13:01:06;98698.81;;;22.45;38.14
57574;BME280;68988;49.000;21.242;2024-03-17T13:03:35;98690.50;;;22.41;38.34
57574;BME280;68988;49.000;21.242;2024-03-17T13:06:02;98694.50;;;22.39;38.28
57574;BME280;68988;49.000;21.242;2024-03-17T13:08:29;98697.16;;;22.39;38.11
57574;BME280;68988;49.000;21.242;2024-03-17T13:10:56;98695.28;;;22.39;38.19
57574;BME280;68988;49.000;21.242;2024-03-17T13:13:22;98687.03;;;22.41;38.03
57574;BME280;68988;49.000;21.242;2024-03-17T13:15:47;98687.81;;;22.41;38.00
57574;BME280;68988;49.000;21.242;2024-03-17T13:18:17;98696.06;;;22.34;38.45
57574;BME280;68988;49.000;21.242;2024-03-17T13:20:44;98693.94;;;22.37;38.17
57574;BME280;68988;49.000;21.242;2024-03-17T13:23:10;98686.75;;;22.37;38.35
57574;BME280;68988;49.000;21.242;2024-03-17T13:25:36;98689.16;;;22.39;38.28